Historyczne dane pomiarowe

Dodano dane terminowe – wersja testowa.

Dane z okresu 1951-2019

Wersja bazy: 1.34 [2019-03-16, lista zmian], aktualizacja planowana na 2019-04-15

Dane meteo z obszaru Polski uzyskane na podstawie danych udostępnionych przez Instytut Meteorologii i Gospodarki Wodnej – Państwowy Instytut Badawczy.

 

Wybierz Datę:    

       

TemperaturaWilgotnośćWiatrCiśnienieOpadyŚniegCzas trwania zjawisk
 Stacja t tx tn tng RH VA  wxwx mslp ppp RRR   cm mm wxwxwxwxwxwxwx
1970-10-10 14.6 21.5 7.3--- 0.0 1.3---- 0.0------------
1970-10-09 11.8 20.9 6.3--- 0.3 0.7---- 0.0------------
1970-10-08 14.1 20.0 10.6--- 0.0 1.7---- 0.0------------
1970-10-07 13.1 17.2 5.6--- 0.3 2.7---- 0.0------------
1970-10-06 9.3 13.2 6.5--- 8.0 0.0---- 0.6------------
1970-10-05 7.1 9.2 5.1--- 8.0 1.3---- 3.0------------
1970-10-04 5.7 10.2 -0.3--- 5.0 1.0---- 7.5------------
1970-10-03 7.5 9.0 4.6--- 8.0 1.3---- 1.6------------
1970-10-02 8.7 11.5 6.5--- 7.3 1.7---- 8.4------------
1970-10-01 7.1 8.8 4.6--- 8.0 3.0---- 1.6------------
1970-09-30 6.2 9.1 -2.2--- 4.7 5.0---- 0.8------------
1970-09-29 1.5 7.2 -0.9--- 3.7 1.3---- 0.0------------
1970-09-28 4.0 6.5 2.9--- 5.0 1.7---- 0.0------------
1970-09-27 4.9 8.3 3.0--- 7.7 1.3---- 0.0------------
1970-09-26 6.1 8.8 4.1--- 7.0 1.0---- 1.1------------
1970-09-25 7.0 11.0 -0.9--- 5.7 1.0---- 2.6------------
1970-09-24 5.3 10.0 0.1--- 3.7 1.0---- 0.0------------
1970-09-23 4.2 9.6 0.5--- 3.3 0.0---- 3.7------------
1970-09-22 7.6 12.1 6.2--- 5.3 2.0---- 1.1------------
1970-09-21 9.6 13.9 7.6--- 8.0 1.0---- 2.8------------
1970-09-20 9.9 10.9 6.9--- 8.0 0.3---- 6.2------------
1970-09-19 9.5 13.3 8.0--- 7.7 0.0---- 3.6------------
1970-09-18 10.5 12.3 9.5--- 8.0 1.0---- 3.6------------
1970-09-17 10.5 17.0 9.7--- 8.0 2.0---- 2.8------------
1970-09-16 17.4 24.2 9.9--- 2.7 1.0---- 5.6------------
1970-09-15 14.6 24.8 5.0--- 0.0 0.3---- 0.0------------
1970-09-14 13.1 20.2 7.0--- 0.3 2.0---- 0.0------------
1970-09-13 13.6 23.2 12.5--- 6.0 1.3---- 15.0------------
1970-09-12 16.6 21.7 13.0--- 6.0 1.3---- 0.0------------
1970-09-11 21.6 25.0 11.2--- 0.3 1.7---- 0.0------------
1970-09-10 16.5 22.9 11.5--- 0.3 0.7---- 0.0------------
1970-09-09 17.0 20.8 12.7--- 2.7 2.3---- 0.0------------
1970-09-08 12.7 16.7 1.6--- 2.0 1.7---- 0.0------------
1970-09-07 8.5 12.5 6.1--- 4.0 1.3---- 2.6------------
1970-09-06 10.3 12.5 9.0--- 5.3 1.3---- 2.0------------
1970-09-05 12.2 15.4 7.5--- 5.0 2.0---- 4.8------------
1970-09-04 14.1 18.1 12.5--- 7.7 0.3---- 2.0------------
1970-09-03 13.8 19.2 4.7--- 4.7 1.0---- 0.4------------
1970-09-02 13.0 16.6 10.4--- 5.0 1.3---- 4.4------------
1970-09-01 16.6 19.9 13.5--- 8.0 0.0---- 1.9------------
1970-08-31 15.9 17.6 13.8--- 8.0 0.0---- 0.8------------
1970-08-30 16.2 20.4 7.6--- 5.7 0.3---- 1.6------------
1970-08-29 14.5 20.8 6.8--- 0.7 1.3---- 0.0------------
1970-08-28 13.7 19.6 6.8--- 3.3 1.3---- 0.0------------
1970-08-27 12.1 17.2 9.7--- 3.7 1.0---- 0.0------------
1970-08-26 13.2 16.9 10.0--- 7.3 1.0---- 4.9------------
1970-08-25 13.4 17.8 9.5--- 7.3 1.3---- 23.5------------
1970-08-24 14.2 18.8 12.3--- 6.0 0.7---- 1.0------------
1970-08-23 15.0 18.5 12.6--- 7.3 1.0---- 6.0------------
1970-08-22 13.6 17.8 6.7--- 6.0 0.7---- 11.8------------
1970-08-21 14.8 20.8 8.0--- 3.0 0.7---- 0.0------------
1970-08-20 14.9 22.2 7.1--- 0.0 0.7---- 0.0------------
1970-08-19 13.0 19.8 7.0--- 1.0 1.0---- 0.0------------
1970-08-18 13.0 18.2 11.7--- 6.7 1.3---- 6.1------------
1970-08-17 18.3 22.2 11.2--- 4.3 0.3---- 18.5------------
1970-08-16 17.7 22.2 14.5--- 6.3 0.0---- 0.1------------
1970-08-15 17.5 23.9 7.6--- 3.0 1.0---- 5.0------------
1970-08-14 13.9 20.5 6.6--- 0.7 1.0---- 0.0------------
1970-08-13 13.2 15.6 8.5--- 4.0 1.0---- 0.5------------
1970-08-12 11.5 15.1 9.0--- 5.0 1.3---- 1.2------------
355.7 ms

 

Źródłem pochodzenia danych jest Instytut Meteorologii i Gospodarki Wodnej – Państwowy Instytut Badawczy. Dane Instytutu Meteorologii i Gospodarki Wodnej – Państwowego Instytutu Badawczego zostały przetworzone.

Dane źródłowe można odnaleźć na stronie https://dane.imgw.pl